createdAt,value
2018-05-10T00:01:10.841Z,15.20
2018-05-10T00:03:41.195Z,15.20
2018-05-10T00:06:10.077Z,15.10
2018-05-10T00:08:38.245Z,15.10
2018-05-10T00:11:07.678Z,15.00
2018-05-10T00:13:35.807Z,15.00
2018-05-10T00:16:04.705Z,15.00
2018-05-10T00:18:32.877Z,15.00
2018-05-10T00:21:01.789Z,15.00
2018-05-10T00:23:29.898Z,15.00
2018-05-10T00:25:58.015Z,15.00
2018-05-10T00:28:26.908Z,14.90
2018-05-10T00:30:55.793Z,14.80
2018-05-10T00:33:24.666Z,14.80
2018-05-10T00:35:52.844Z,14.80
2018-05-10T00:38:20.971Z,14.80
2018-05-10T00:40:50.746Z,14.80
2018-05-10T00:43:18.994Z,14.80
2018-05-10T00:45:47.160Z,14.80
2018-05-10T00:48:15.287Z,14.90
2018-05-10T00:50:43.399Z,14.90
2018-05-10T00:53:11.626Z,14.90
2018-05-10T00:55:39.761Z,14.80
2018-05-10T00:58:07.889Z,14.80
2018-05-10T01:00:36.037Z,14.80
2018-05-10T01:03:07.727Z,14.80
2018-05-10T01:05:35.846Z,14.70
2018-05-10T01:08:04.741Z,14.70
2018-05-10T01:10:32.947Z,14.70
2018-05-10T01:13:01.058Z,14.60
2018-05-10T01:15:29.179Z,14.60
2018-05-10T01:17:57.303Z,14.60
2018-05-10T01:20:25.527Z,14.50
2018-05-10T01:22:54.417Z,14.40
2018-05-10T01:25:23.298Z,14.30
2018-05-10T01:27:52.224Z,14.30
2018-05-10T01:30:20.421Z,14.30
2018-05-10T01:32:48.527Z,14.20
2018-05-10T01:35:29.325Z,14.10
2018-05-10T01:37:57.471Z,14.10
2018-05-10T01:40:25.574Z,14.10
2018-05-10T01:42:53.704Z,14.00
2018-05-10T01:45:21.844Z,14.10
2018-05-10T01:47:50.059Z,14.00
2018-05-10T01:50:18.179Z,14.00
2018-05-10T01:52:47.352Z,14.00
2018-05-10T01:55:16.246Z,14.10
2018-05-10T01:57:45.129Z,14.10
2018-05-10T02:00:14.075Z,14.10
2018-05-10T02:02:42.178Z,14.10
2018-05-10T02:05:10.288Z,14.10
2018-05-10T02:07:38.399Z,14.10
2018-05-10T02:10:06.499Z,14.10
2018-05-10T02:12:35.490Z,14.00
2018-05-10T02:15:03.588Z,14.00
2018-05-10T02:17:31.701Z,14.00
2018-05-10T02:19:59.801Z,13.90
2018-05-10T02:22:27.910Z,13.90
2018-05-10T02:24:56.769Z,13.80
2018-05-10T02:27:24.908Z,13.80
2018-05-10T02:29:53.056Z,13.80
2018-05-10T02:32:21.244Z,13.80
2018-05-10T02:34:49.395Z,13.70
2018-05-10T02:37:17.512Z,13.70
2018-05-10T02:39:45.630Z,13.70
2018-05-10T02:42:14.490Z,13.60
2018-05-10T02:44:42.602Z,13.60
2018-05-10T02:47:10.718Z,13.60
2018-05-10T02:49:38.849Z,13.50
2018-05-10T02:52:06.949Z,13.50
2018-05-10T02:54:35.689Z,13.50
2018-05-10T02:57:03.847Z,13.50
2018-05-10T02:59:32.032Z,13.50
2018-05-10T03:02:00.539Z,13.50
2018-05-10T03:04:28.644Z,13.50
2018-05-10T03:06:56.740Z,13.50
2018-05-10T03:09:24.838Z,13.50
2018-05-10T03:11:53.712Z,13.50
2018-05-10T03:14:21.877Z,13.50
2018-05-10T03:16:51.115Z,13.40
2018-05-10T03:19:19.233Z,13.40
2018-05-10T03:21:47.322Z,13.40
2018-05-10T03:24:15.469Z,13.30
2018-05-10T03:26:44.496Z,13.20
2018-05-10T03:29:12.623Z,13.20
2018-05-10T03:31:40.747Z,13.10
2018-05-10T03:34:08.862Z,13.10
2018-05-10T03:36:38.453Z,13.00
2018-05-10T03:39:07.034Z,13.00
2018-05-10T03:41:35.148Z,12.90
2018-05-10T03:44:03.387Z,12.90
2018-05-10T03:46:31.551Z,12.90
2018-05-10T03:48:59.620Z,12.90
2018-05-10T03:51:29.794Z,12.90
2018-05-10T03:53:58.813Z,12.80
2018-05-10T03:56:26.921Z,12.80
2018-05-10T03:58:55.035Z,12.80
2018-05-10T04:01:23.134Z,12.70
2018-05-10T04:04:03.989Z,12.60
2018-05-10T04:06:43.795Z,12.60
2018-05-10T04:09:23.664Z,12.50
2018-05-10T04:11:53.531Z,12.50
2018-05-10T04:14:22.401Z,12.50
2018-05-10T04:16:50.579Z,12.40
2018-05-10T04:19:18.672Z,12.50
2018-05-10T04:21:46.805Z,12.50
2018-05-10T04:24:14.916Z,12.50
2018-05-10T04:26:43.363Z,12.50
2018-05-10T04:29:11.537Z,12.50
2018-05-10T04:31:39.659Z,12.50
2018-05-10T04:34:07.805Z,12.50
2018-05-10T04:36:35.911Z,12.50
2018-05-10T04:39:04.077Z,12.50
2018-05-10T04:41:33.595Z,12.50
2018-05-10T04:44:01.715Z,12.50
2018-05-10T04:46:29.828Z,12.50
2018-05-10T04:48:57.933Z,12.50
2018-05-10T04:51:28.174Z,12.50
2018-05-10T04:53:56.384Z,12.50
2018-05-10T04:56:25.254Z,12.50
2018-05-10T04:58:53.365Z,12.50
2018-05-10T05:01:21.484Z,12.50
2018-05-10T05:03:49.604Z,12.50
2018-05-10T05:06:17.719Z,12.60
2018-05-10T05:08:48.817Z,12.60
2018-05-10T05:11:16.942Z,12.60
2018-05-10T05:13:45.063Z,12.60
2018-05-10T05:16:13.206Z,12.60
2018-05-10T05:18:41.362Z,12.70
2018-05-10T05:21:09.477Z,12.70
2018-05-10T05:23:37.609Z,12.70
2018-05-10T05:26:06.926Z,12.80
2018-05-10T05:28:35.793Z,12.90
2018-05-10T05:31:03.911Z,12.90
2018-05-10T05:33:32.134Z,13.00
2018-05-10T05:36:00.223Z,13.10
2018-05-10T05:38:28.350Z,13.10
2018-05-10T05:40:57.238Z,13.20
2018-05-10T05:43:25.955Z,13.30
2018-05-10T05:45:56.373Z,13.40
2018-05-10T05:48:25.275Z,13.60
2018-05-10T05:50:53.392Z,13.60
2018-05-10T05:53:22.274Z,13.80
2018-05-10T05:55:51.777Z,13.90
2018-05-10T05:58:21.146Z,13.90
2018-05-10T06:00:49.462Z,13.90
2018-05-10T06:03:17.443Z,13.90
2018-05-10T06:05:45.551Z,13.90
2018-05-10T06:08:13.675Z,13.90
2018-05-10T06:10:42.536Z,13.90
2018-05-10T06:13:10.640Z,13.90
2018-05-10T06:15:39.537Z,13.80
2018-05-10T06:18:08.436Z,13.80
2018-05-10T06:20:36.557Z,13.80
2018-05-10T06:23:04.690Z,13.90
2018-05-10T06:25:32.820Z,14.00
2018-05-10T06:28:00.975Z,14.10
2018-05-10T06:30:30.500Z,14.30
2018-05-10T06:32:58.608Z,14.40
2018-05-10T06:35:26.741Z,14.50
2018-05-10T06:37:55.665Z,14.40
2018-05-10T06:40:23.835Z,14.40
2018-05-10T06:42:52.516Z,14.50
2018-05-10T06:45:21.410Z,14.60
2018-05-10T06:47:50.347Z,14.60
2018-05-10T06:50:19.251Z,14.80
2018-05-10T06:52:47.378Z,14.80
2018-05-10T06:55:16.576Z,15.00
2018-05-10T06:57:45.478Z,15.00
2018-05-10T07:00:15.346Z,15.00
2018-05-10T07:02:43.452Z,15.00
2018-05-10T07:05:12.310Z,15.20
2018-05-10T07:07:40.786Z,15.20
2018-05-10T07:10:15.499Z,15.20
2018-05-10T07:12:45.745Z,15.20
2018-05-10T07:15:14.506Z,14.90
2018-05-10T07:17:42.853Z,14.70
2018-05-10T07:20:10.965Z,14.60
2018-05-10T07:22:39.666Z,14.80
2018-05-10T07:25:07.943Z,14.90
2018-05-10T07:27:36.767Z,15.30
2018-05-10T07:30:05.864Z,15.30
2018-05-10T07:32:34.726Z,15.10
2018-05-10T07:35:03.621Z,15.20
2018-05-10T07:37:32.502Z,15.30
2018-05-10T07:40:00.612Z,15.30
2018-05-10T07:42:30.243Z,14.90
2018-05-10T07:44:58.367Z,14.90
2018-05-10T07:47:27.749Z,14.60
2018-05-10T07:49:57.408Z,14.60
2018-05-10T07:52:25.533Z,14.50
2018-05-10T07:54:53.656Z,14.50
2018-05-10T07:57:21.767Z,14.60
2018-05-10T07:59:51.401Z,14.50
2018-05-10T08:02:20.339Z,15.00
2018-05-10T08:04:48.413Z,15.00
2018-05-10T08:07:17.198Z,15.20
2018-05-10T08:09:45.254Z,15.40
2018-05-10T08:12:13.373Z,15.60
2018-05-10T08:14:41.591Z,15.60
2018-05-10T08:17:09.789Z,15.50
2018-05-10T08:19:38.651Z,15.80
2018-05-10T08:22:06.838Z,15.70
2018-05-10T08:24:34.942Z,15.80
2018-05-10T08:27:03.857Z,16.10
2018-05-10T08:29:31.962Z,16.00
2018-05-10T08:32:00.179Z,16.00
2018-05-10T08:34:28.443Z,15.90
2018-05-10T08:36:59.778Z,16.00
2018-05-10T08:39:27.930Z,16.00
2018-05-10T08:41:57.324Z,16.20
2018-05-10T08:44:26.197Z,16.50
2018-05-10T08:46:54.316Z,16.50
2018-05-10T08:49:23.513Z,16.60
2018-05-10T08:51:51.742Z,16.70
2018-05-10T08:54:19.811Z,16.60
2018-05-10T08:56:47.931Z,16.80
2018-05-10T08:59:16.051Z,17.00
2018-05-10T09:01:44.171Z,17.00
2018-05-10T09:04:12.301Z,17.20
2018-05-10T09:06:40.424Z,17.40
2018-05-10T09:09:08.550Z,17.30
2018-05-10T09:11:37.428Z,17.80
2018-05-10T09:14:05.555Z,17.70
2018-05-10T09:16:33.659Z,18.20
2018-05-10T09:19:01.789Z,18.30
2018-05-10T09:21:29.999Z,18.20
2018-05-10T09:23:58.253Z,18.20
2018-05-10T09:26:26.434Z,18.20
2018-05-10T09:28:54.566Z,18.40
2018-05-10T09:31:23.207Z,19.00
2018-05-10T09:33:51.892Z,19.40
2018-05-10T09:36:20.001Z,19.40
2018-05-10T09:38:48.182Z,18.70
2018-05-10T09:41:17.051Z,18.10
2018-05-10T09:43:45.165Z,18.00
2018-05-10T09:46:13.376Z,18.20
2018-05-10T09:48:41.418Z,18.40
2018-05-10T09:51:10.262Z,18.80
2018-05-10T09:53:38.417Z,18.80
2018-05-10T09:56:07.565Z,19.00
2018-05-10T09:58:36.422Z,18.90
2018-05-10T10:01:04.894Z,18.90
2018-05-10T10:03:33.114Z,18.90
2018-05-10T10:06:02.005Z,18.40
2018-05-10T10:08:30.919Z,18.40
2018-05-10T10:10:59.583Z,18.40
2018-05-10T10:13:27.688Z,18.50
2018-05-10T10:15:55.809Z,18.80
2018-05-10T10:18:23.906Z,19.00
2018-05-10T10:20:52.036Z,19.20
2018-05-10T10:23:20.174Z,19.50
2018-05-10T10:25:48.293Z,19.70
2018-05-10T10:28:16.418Z,19.40
2018-05-10T10:30:44.555Z,19.10
2018-05-10T10:33:13.066Z,19.00
2018-05-10T10:35:41.707Z,18.80
2018-05-10T10:38:09.853Z,18.70
2018-05-10T10:40:39.509Z,18.70
2018-05-10T10:43:08.093Z,18.70
2018-05-10T10:45:36.314Z,18.50
2018-05-10T10:48:04.546Z,18.50
2018-05-10T10:50:32.757Z,18.70
2018-05-10T10:53:00.962Z,18.70
2018-05-10T10:55:29.046Z,18.40
2018-05-10T10:57:57.247Z,18.30
2018-05-10T11:00:25.407Z,18.10
2018-05-10T11:02:53.522Z,18.20
2018-05-10T11:05:21.617Z,18.30
2018-05-10T11:07:49.787Z,18.60
2018-05-10T11:10:17.896Z,18.60
2018-05-10T11:12:46.779Z,18.70
2018-05-10T11:15:14.924Z,18.70
2018-05-10T11:17:43.078Z,19.00
2018-05-10T11:20:11.416Z,18.90
2018-05-10T11:22:40.333Z,19.10
2018-05-10T11:25:08.503Z,19.10
2018-05-10T11:27:37.037Z,19.40
2018-05-10T11:30:05.143Z,19.30
2018-05-10T11:32:33.238Z,19.60
2018-05-10T11:35:01.355Z,19.80
2018-05-10T11:37:29.478Z,19.80
2018-05-10T11:39:57.590Z,19.60
2018-05-10T11:42:25.701Z,19.30
2018-05-10T11:44:53.825Z,18.80
2018-05-10T11:47:21.939Z,18.20
2018-05-10T11:49:50.049Z,18.00
2018-05-10T11:52:18.167Z,17.70
2018-05-10T11:54:46.284Z,17.40
2018-05-10T11:57:14.565Z,17.30
2018-05-10T11:59:43.414Z,17.10
2018-05-10T12:02:11.515Z,17.10
2018-05-10T12:04:39.618Z,17.00
2018-05-10T12:07:07.728Z,17.10
2018-05-10T12:09:35.830Z,17.10
2018-05-10T12:12:03.949Z,17.20
2018-05-10T12:14:32.107Z,17.60
2018-05-10T12:17:00.711Z,17.90
2018-05-10T12:19:28.818Z,18.30
2018-05-10T12:21:58.912Z,19.00
2018-05-10T12:24:27.911Z,19.20
2018-05-10T12:26:56.767Z,19.20
2018-05-10T12:29:24.890Z,19.00
2018-05-10T12:31:53.764Z,18.70
2018-05-10T12:34:21.888Z,18.70
2018-05-10T12:36:50.018Z,18.60
2018-05-10T12:39:19.260Z,18.40
2018-05-10T12:41:47.393Z,18.20
2018-05-10T12:44:15.505Z,18.30
2018-05-10T12:46:43.598Z,18.70
2018-05-10T12:49:11.707Z,19.20
2018-05-10T12:51:40.312Z,19.40
2018-05-10T12:54:09.576Z,19.70
2018-05-10T12:56:37.684Z,20.00
2018-05-10T12:59:14.803Z,19.90
2018-05-10T13:01:43.923Z,19.50
2018-05-10T13:04:12.071Z,19.50
2018-05-10T13:06:40.201Z,19.30
2018-05-10T13:09:09.077Z,19.10
2018-05-10T13:11:37.184Z,19.10
2018-05-10T13:14:05.292Z,19.60
2018-05-10T13:16:33.400Z,19.90
2018-05-10T13:19:02.409Z,19.80
2018-05-10T13:21:31.281Z,19.50
2018-05-10T13:23:59.390Z,19.50
2018-05-10T13:26:27.519Z,19.50
2018-05-10T13:28:55.654Z,19.70
2018-05-10T13:31:23.755Z,19.90
2018-05-10T13:33:51.905Z,19.80
2018-05-10T13:36:20.149Z,19.90
2018-05-10T13:38:49.486Z,19.90
2018-05-10T13:41:17.620Z,19.80
2018-05-10T13:43:45.770Z,19.50
2018-05-10T13:46:14.886Z,19.20
2018-05-10T13:48:43.019Z,19.10
2018-05-10T13:51:11.121Z,19.20
2018-05-10T13:53:40.966Z,18.80
2018-05-10T13:56:09.069Z,18.80
2018-05-10T13:58:37.203Z,18.70
2018-05-10T14:01:05.327Z,18.40
2018-05-10T14:03:33.446Z,18.40
2018-05-10T14:06:01.753Z,18.20
2018-05-10T14:08:29.845Z,18.10
2018-05-10T14:10:57.962Z,18.20
2018-05-10T14:13:26.096Z,18.20
2018-05-10T14:15:54.966Z,18.10
2018-05-10T14:18:23.142Z,18.10
2018-05-10T14:20:51.444Z,18.10
2018-05-10T14:23:19.609Z,18.50
2018-05-10T14:25:47.700Z,18.70
2018-05-10T14:28:16.567Z,19.50
2018-05-10T14:30:44.672Z,19.40
2018-05-10T14:33:13.579Z,20.20
2018-05-10T14:35:41.702Z,20.20
2018-05-10T14:38:09.815Z,20.50
2018-05-10T14:40:38.148Z,20.40
2018-05-10T14:43:06.258Z,20.30
2018-05-10T14:45:35.127Z,19.90
2018-05-10T14:48:03.269Z,19.90
2018-05-10T14:50:31.404Z,19.70
2018-05-10T14:52:59.617Z,19.20
2018-05-10T14:55:28.027Z,19.10
2018-05-10T14:57:56.152Z,18.80
2018-05-10T15:00:24.338Z,18.30
2018-05-10T15:02:52.482Z,17.80
2018-05-10T15:05:20.583Z,17.40
2018-05-10T15:07:49.298Z,17.20
2018-05-10T15:10:17.440Z,16.90
2018-05-10T15:12:45.725Z,16.50
2018-05-10T15:15:13.969Z,16.20
2018-05-10T15:17:42.084Z,16.00
2018-05-10T15:20:10.197Z,16.00
2018-05-10T15:22:39.066Z,16.30
2018-05-10T15:25:07.175Z,16.30
2018-05-10T15:27:35.331Z,16.60
2018-05-10T15:30:04.214Z,17.20
2018-05-10T15:32:33.114Z,17.40
2018-05-10T15:35:01.970Z,17.50
2018-05-10T15:37:30.096Z,17.50
2018-05-10T15:39:58.208Z,17.90
2018-05-10T15:42:26.618Z,18.20
2018-05-10T15:44:54.739Z,18.40
2018-05-10T15:47:22.896Z,18.50
2018-05-10T15:49:51.028Z,18.30
2018-05-10T15:52:19.165Z,17.90
2018-05-10T15:54:47.282Z,17.50
2018-05-10T15:57:16.388Z,17.50
2018-05-10T15:59:45.255Z,17.30
2018-05-10T16:02:13.593Z,17.30
2018-05-10T16:04:41.712Z,17.20
2018-05-10T16:07:09.908Z,17.10
2018-05-10T16:09:39.384Z,16.90
2018-05-10T16:12:08.257Z,16.80
2018-05-10T16:14:36.393Z,16.90
2018-05-10T16:17:04.602Z,16.90
2018-05-10T16:19:32.769Z,16.70
2018-05-10T16:22:00.884Z,16.70
2018-05-10T16:24:29.070Z,16.80
2018-05-10T16:26:57.980Z,16.90
2018-05-10T16:29:27.652Z,16.70
2018-05-10T16:31:55.778Z,16.70
2018-05-10T16:34:23.892Z,16.80
2018-05-10T16:36:52.008Z,16.60
2018-05-10T16:39:20.187Z,16.40
2018-05-10T16:41:49.798Z,16.40
2018-05-10T16:44:18.770Z,16.40
2018-05-10T16:46:47.815Z,16.30
2018-05-10T16:49:16.083Z,16.30
2018-05-10T16:51:45.025Z,16.20
2018-05-10T16:54:13.901Z,16.10
2018-05-10T16:56:42.769Z,16.00
2018-05-10T16:59:10.900Z,16.00
2018-05-10T17:01:39.023Z,15.90
2018-05-10T17:04:07.392Z,15.80
2018-05-10T17:06:35.524Z,15.80
2018-05-10T17:09:03.636Z,15.60
2018-05-10T17:11:31.735Z,15.50
2018-05-10T17:13:59.834Z,15.30
2018-05-10T17:16:28.053Z,15.30
2018-05-10T17:18:56.402Z,15.30
2018-05-10T17:21:24.510Z,15.30
2018-05-10T17:23:52.623Z,15.50
2018-05-10T17:26:20.888Z,15.70
2018-05-10T17:28:50.266Z,15.70
2018-05-10T17:31:18.441Z,15.70
2018-05-10T17:33:47.405Z,15.60
2018-05-10T17:36:16.331Z,15.50
2018-05-10T17:38:44.458Z,15.50
2018-05-10T17:41:12.680Z,15.60
2018-05-10T17:43:41.553Z,15.90
2018-05-10T17:46:09.683Z,15.90
2018-05-10T17:48:38.302Z,15.90
2018-05-10T17:51:06.412Z,15.70
2018-05-10T17:53:35.372Z,15.30
2018-05-10T17:56:03.468Z,15.30
2018-05-10T17:58:32.627Z,14.90
2018-05-10T18:01:01.464Z,14.90
2018-05-10T18:03:30.379Z,14.70
2018-05-10T18:05:58.508Z,14.70
2018-05-10T18:08:26.690Z,14.70
2018-05-10T18:10:54.817Z,14.60
2018-05-10T18:13:22.994Z,14.50
2018-05-10T18:15:51.139Z,14.60
2018-05-10T18:18:19.244Z,14.60
2018-05-10T18:20:47.359Z,14.60
2018-05-10T18:23:16.304Z,14.70
2018-05-10T18:25:44.527Z,14.60
2018-05-10T18:28:13.957Z,14.60
2018-05-10T18:30:42.078Z,14.50
2018-05-10T18:33:10.351Z,14.50
2018-05-10T18:35:38.547Z,14.50
2018-05-10T18:38:06.764Z,14.50
2018-05-10T18:40:35.859Z,14.50
2018-05-10T18:43:06.350Z,14.40
2018-05-10T18:45:37.731Z,14.30
2018-05-10T18:48:06.278Z,14.30
2018-05-10T18:50:35.019Z,14.30
2018-05-10T18:53:03.266Z,14.20
2018-05-10T18:55:32.177Z,13.90
2018-05-10T18:58:01.465Z,13.90
2018-05-10T19:00:30.971Z,13.80
2018-05-10T19:02:59.107Z,13.60
2018-05-10T19:05:27.991Z,13.40
2018-05-10T19:07:56.156Z,13.40
2018-05-10T19:10:24.303Z,13.30
2018-05-10T19:12:52.397Z,13.30
2018-05-10T19:15:20.510Z,13.40
2018-05-10T19:17:49.453Z,13.40
2018-05-10T19:20:17.563Z,13.40
2018-05-10T19:22:46.073Z,13.50
2018-05-10T19:25:14.205Z,13.50
2018-05-10T19:27:43.170Z,13.40
2018-05-10T19:30:11.301Z,13.40
2018-05-10T19:32:40.190Z,13.40
2018-05-10T19:35:09.179Z,13.40
2018-05-10T19:37:37.679Z,13.30
2018-05-10T19:40:05.809Z,13.30
2018-05-10T19:42:34.024Z,13.30
2018-05-10T19:45:02.289Z,13.30
2018-05-10T19:47:31.233Z,13.20
2018-05-10T19:49:59.336Z,13.20
2018-05-10T19:52:28.209Z,13.00
2018-05-10T19:54:56.403Z,13.00
2018-05-10T19:57:26.026Z,12.70
2018-05-10T19:59:54.873Z,12.50
2018-05-10T20:02:22.995Z,12.50
2018-05-10T20:04:51.125Z,12.40
2018-05-10T20:07:19.244Z,12.20
2018-05-10T20:09:51.772Z,12.10
2018-05-10T20:12:19.920Z,12.00
2018-05-10T20:14:48.756Z,11.80
2018-05-10T20:17:18.180Z,11.70
2018-05-10T20:19:46.323Z,11.70
2018-05-10T20:22:15.285Z,11.60
2018-05-10T20:24:43.998Z,11.60
2018-05-10T20:27:12.115Z,11.50
2018-05-10T20:29:40.254Z,11.40
2018-05-10T20:32:10.721Z,11.30
2018-05-10T20:34:38.869Z,11.30
2018-05-10T20:37:06.948Z,11.30
2018-05-10T20:39:35.068Z,11.20
2018-05-10T20:42:03.204Z,11.20
2018-05-10T20:44:32.613Z,11.20
2018-05-10T20:47:00.707Z,11.10
2018-05-10T20:49:28.817Z,11.00
2018-05-10T20:51:57.748Z,10.90
2018-05-10T20:54:25.869Z,10.90
2018-05-10T20:56:54.220Z,10.80
2018-05-10T20:59:24.039Z,10.80
2018-05-10T21:01:52.773Z,10.80
2018-05-10T21:04:21.718Z,10.60
2018-05-10T21:06:50.626Z,10.60
2018-05-10T21:09:20.032Z,10.60
2018-05-10T21:11:48.158Z,10.60
2018-05-10T21:14:16.257Z,10.50
2018-05-10T21:16:44.387Z,10.40
2018-05-10T21:19:12.728Z,10.40
2018-05-10T21:21:40.854Z,10.30
2018-05-10T21:24:10.350Z,10.30
2018-05-10T21:26:39.184Z,10.50
2018-05-10T21:29:07.484Z,10.40
2018-05-10T21:31:35.614Z,10.40
2018-05-10T21:34:03.817Z,10.40
2018-05-10T21:36:32.618Z,10.20
2018-05-10T21:39:00.740Z,10.20
2018-05-10T21:41:28.849Z,10.10
2018-05-10T21:43:56.968Z,10.10
2018-05-10T21:46:26.034Z,9.90
2018-05-10T21:48:56.035Z,9.90
2018-05-10T21:51:24.349Z,9.80
2018-05-10T21:53:53.309Z,9.70
2018-05-10T21:56:21.614Z,9.70
2018-05-10T21:58:50.746Z,9.60
2018-05-10T22:01:18.862Z,9.50
2018-05-10T22:03:46.967Z,9.50
2018-05-10T22:06:16.173Z,9.50
2018-05-10T22:08:44.417Z,9.40
2018-05-10T22:11:12.769Z,9.40
2018-05-10T22:13:42.886Z,9.30
2018-05-10T22:16:11.658Z,9.30
2018-05-10T22:18:40.075Z,9.30
2018-05-10T22:21:09.322Z,9.20
2018-05-10T22:23:37.992Z,9.20
2018-05-10T22:26:06.713Z,9.20
2018-05-10T22:28:34.828Z,9.20
2018-05-10T22:31:03.705Z,9.20
2018-05-10T22:33:31.989Z,9.20
2018-05-10T22:36:00.079Z,9.10
2018-05-10T22:38:29.104Z,9.10
2018-05-10T22:40:58.545Z,9.10
2018-05-10T22:43:26.658Z,9.10
2018-05-10T22:45:54.898Z,9.10
2018-05-10T22:48:23.794Z,9.00
2018-05-10T22:50:52.356Z,9.00
2018-05-10T22:53:20.486Z,8.90
2018-05-10T22:55:48.625Z,8.90
2018-05-10T22:58:16.975Z,8.80
2018-05-10T23:00:45.090Z,8.80
2018-05-10T23:03:13.961Z,8.70
2018-05-10T23:05:42.107Z,8.70
2018-05-10T23:08:10.204Z,8.70
2018-05-10T23:10:38.312Z,8.60
2018-05-10T23:13:06.473Z,8.60
2018-05-10T23:15:35.877Z,8.60
2018-05-10T23:18:04.043Z,8.60
2018-05-10T23:20:32.915Z,8.50
2018-05-10T23:23:01.324Z,8.50
2018-05-10T23:25:30.222Z,8.50
2018-05-10T23:27:59.078Z,8.40
2018-05-10T23:30:27.218Z,8.40
2018-05-10T23:32:55.343Z,8.40
2018-05-10T23:35:24.232Z,8.40
2018-05-10T23:37:53.104Z,8.40
2018-05-10T23:40:21.221Z,8.40
2018-05-10T23:42:49.321Z,8.30
2018-05-10T23:45:17.481Z,8.30
2018-05-10T23:47:45.724Z,8.20
2018-05-10T23:50:15.299Z,8.20
2018-05-10T23:52:45.660Z,8.10
2018-05-10T23:55:14.524Z,8.10
2018-05-10T23:57:42.742Z,8.00
